Sirena — V7RX6 — position and weather

sailwx.info

Track history (hours):
 
Tides and Currents Weather Stations Pressure Air Temp Water Temp Dewpoint Dewpoint Depression Visibility Wind Speed Wind Dir Waves Ship Positions

Sirena

Last reported at 2018-Feb-20 17:24 UTC. Time now 2018-Feb-20 19:56 UTC.
Position N 09°13' W 079°55'.

Length 179 m; draft 5.8 m.

Type: Passenger vessel. MMSI: 310505000.

Date/timePositionNaut miles runAvg speedWind from/ knotsBaromVisibWave heightAir tempDewpointWater temp
2018-Feb-20 17:24N 09°13' W 079°55'3 5.0
2018-Feb-20 16:45N 09°16' W 079°55'2 0.9
2018-Feb-20 15:03N 09°18' W 079°55'0 2.4
2018-Feb-20 15:00N 09°18' W 079°55'2 3.1
2018-Feb-20 14:30N 09°19' W 079°55'3 6.2
2018-Feb-20 14:00N 09°22' W 079°55'3 5.2
2018-Feb-20 13:31N 09°25' W 079°55'916.2
2018-Feb-20 12:56N 09°30' W 080°03'  
2018-Feb-14 01:42N 20°28' W 087°03'313.0
2018-Feb-14 01:30N 20°30' W 087°01'3 6.1
2018-Feb-14 00:59N 20°31' W 086°57'0 0.0
2018-Feb-14 00:29N 20°31' W 086°57'0 0.0
2018-Feb-13 23:56N 20°31' W 086°57'0 0.0
2018-Feb-13 23:29N 20°31' W 086°57'0 0.0
2018-Feb-13 22:59N 20°31' W 086°57'0 0.0
2018-Feb-13 22:29N 20°31' W 086°57'0 0.0
2018-Feb-13 21:59N 20°31' W 086°57'0 0.0
2018-Feb-13 21:29N 20°31' W 086°57'0 0.0
2018-Feb-13 20:59N 20°31' W 086°57'0 0.0
2018-Feb-13 20:26N 20°31' W 086°57'0 0.0
2018-Feb-13 20:00N 20°31' W 086°57'0 0.0
2018-Feb-13 19:30N 20°31' W 086°57'0 0.0
2018-Feb-13 19:00N 20°31' W 086°57'0 0.0
2018-Feb-13 18:30N 20°31' W 086°57'0 0.0
2018-Feb-13 18:00N 20°31' W 086°57'0 0.0
2018-Feb-13 17:30N 20°31' W 086°57'0 0.0
2018-Feb-13 17:00N 20°31' W 086°57'0 0.0
2018-Feb-13 16:30N 20°31' W 086°57'0 0.0
2018-Feb-13 16:00N 20°31' W 086°57'0 0.0
2018-Feb-13 15:30N 20°31' W 086°57'0 0.0
2018-Feb-13 15:00N 20°31' W 086°57'0 0.0
2018-Feb-13 14:30N 20°31' W 086°57'0 0.0
2018-Feb-13 14:00N 20°31' W 086°57'0 0.0
2018-Feb-13 13:30N 20°31' W 086°57'0 0.0
2018-Feb-13 13:00N 20°31' W 086°57'0 0.0
2018-Feb-13 12:30N 20°31' W 086°57'1 2.1
2018-Feb-13 12:00N 20°32' W 086°57'4 7.6
2018-Feb-13 11:30N 20°35' W 086°58'  
2018-Feb-11 00:44N 25°33' W 080°01'415.9
2018-Feb-11 00:30N 25°36' W 080°02'815.2
2018-Feb-11 00:01N 25°44' W 080°03'4 7.9
2018-Feb-10 23:30N 25°46' W 080°07'3 6.4
2018-Feb-10 23:00N 25°46' W 080°11'0 0.0
2018-Feb-10 22:27N 25°46' W 080°11'0 0.0
2018-Feb-10 22:00N 25°46' W 080°11'0 0.0
2018-Feb-10 21:30N 25°46' W 080°11'0 0.0
2018-Feb-10 21:00N 25°46' W 080°11'0 0.0
2018-Feb-10 20:27N 25°46' W 080°11'0 0.0
2018-Feb-10 20:00N 25°46' W 080°11'0 0.0
2018-Feb-10 19:30N 25°46' W 080°11'0 0.0
2018-Feb-10 19:00N 25°46' W 080°11'0 0.0
2018-Feb-10 18:30N 25°46' W 080°11'0 0.0
2018-Feb-10 17:58N 25°46' W 080°11'0 0.0
2018-Feb-10 17:28N 25°46' W 080°11'  
Track history (hours):
 
Tides and Currents Weather Stations Pressure Air Temp Water Temp Dewpoint Dewpoint Depression Visibility Wind Speed Wind Dir Waves Ship Positions

Sirena

Last reported at 2018-Feb-20 17:24 UTC. Time now 2018-Feb-20 19:56 UTC.
Position N 09°13' W 079°55'.

Length 179 m; draft 5.8 m.

Type: Passenger vessel. MMSI: 310505000.

Date/timePositionNaut miles runAvg speedWind from/ knotsBaromVisibWave heightAir tempDewpointWater temp
2018-Feb-20 17:24N 09°13' W 079°55'3 5.0
2018-Feb-20 16:45N 09°16' W 079°55'2 0.9
2018-Feb-20 15:03N 09°18' W 079°55'0 2.4
2018-Feb-20 15:00N 09°18' W 079°55'2 3.1
2018-Feb-20 14:30N 09°19' W 079°55'3 6.2
2018-Feb-20 14:00N 09°22' W 079°55'3 5.2
2018-Feb-20 13:31N 09°25' W 079°55'916.2
2018-Feb-20 12:56N 09°30' W 080°03'  
2018-Feb-14 01:42N 20°28' W 087°03'313.0
2018-Feb-14 01:30N 20°30' W 087°01'3 6.1
2018-Feb-14 00:59N 20°31' W 086°57'0 0.0
2018-Feb-14 00:29N 20°31' W 086°57'0 0.0
2018-Feb-13 23:56N 20°31' W 086°57'0 0.0
2018-Feb-13 23:29N 20°31' W 086°57'0 0.0
2018-Feb-13 22:59N 20°31' W 086°57'0 0.0
2018-Feb-13 22:29N 20°31' W 086°57'0 0.0
2018-Feb-13 21:59N 20°31' W 086°57'0 0.0
2018-Feb-13 21:29N 20°31' W 086°57'0 0.0
2018-Feb-13 20:59N 20°31' W 086°57'0 0.0
2018-Feb-13 20:26N 20°31' W 086°57'0 0.0
2018-Feb-13 20:00N 20°31' W 086°57'0 0.0
2018-Feb-13 19:30N 20°31' W 086°57'0 0.0
2018-Feb-13 19:00N 20°31' W 086°57'0 0.0
2018-Feb-13 18:30N 20°31' W 086°57'0 0.0
2018-Feb-13 18:00N 20°31' W 086°57'0 0.0
2018-Feb-13 17:30N 20°31' W 086°57'0 0.0
2018-Feb-13 17:00N 20°31' W 086°57'0 0.0
2018-Feb-13 16:30N 20°31' W 086°57'0 0.0
2018-Feb-13 16:00N 20°31' W 086°57'0 0.0
2018-Feb-13 15:30N 20°31' W 086°57'0 0.0
2018-Feb-13 15:00N 20°31' W 086°57'0 0.0
2018-Feb-13 14:30N 20°31' W 086°57'0 0.0
2018-Feb-13 14:00N 20°31' W 086°57'0 0.0
2018-Feb-13 13:30N 20°31' W 086°57'0 0.0
2018-Feb-13 13:00N 20°31' W 086°57'0 0.0
2018-Feb-13 12:30N 20°31' W 086°57'1 2.1
2018-Feb-13 12:00N 20°32' W 086°57'4 7.6
2018-Feb-13 11:30N 20°35' W 086°58'  
2018-Feb-11 00:44N 25°33' W 080°01'415.9
2018-Feb-11 00:30N 25°36' W 080°02'815.2
2018-Feb-11 00:01N 25°44' W 080°03'4 7.9
2018-Feb-10 23:30N 25°46' W 080°07'3 6.4
2018-Feb-10 23:00N 25°46' W 080°11'0 0.0
2018-Feb-10 22:27N 25°46' W 080°11'0 0.0
2018-Feb-10 22:00N 25°46' W 080°11'0 0.0
2018-Feb-10 21:30N 25°46' W 080°11'0 0.0
2018-Feb-10 21:00N 25°46' W 080°11'0 0.0
2018-Feb-10 20:27N 25°46' W 080°11'0 0.0
2018-Feb-10 20:00N 25°46' W 080°11'0 0.0
2018-Feb-10 19:30N 25°46' W 080°11'0 0.0
2018-Feb-10 19:00N 25°46' W 080°11'0 0.0
2018-Feb-10 18:30N 25°46' W 080°11'0 0.0
2018-Feb-10 17:58N 25°46' W 080°11'0 0.0
2018-Feb-10 17:28N 25°46' W 080°11'  

Dump ship's entire track history